createdAt,value
2023-05-09T00:01:23.374Z,97.90
2023-05-09T00:03:54.751Z,97.80
2023-05-09T00:06:24.155Z,97.80
2023-05-09T00:08:53.417Z,97.60
2023-05-09T00:11:23.278Z,97.50
2023-05-09T00:13:53.107Z,97.50
2023-05-09T00:16:24.912Z,97.50
2023-05-09T00:18:54.217Z,97.30
2023-05-09T00:21:30.038Z,97.20
2023-05-09T00:24:00.074Z,97.10
2023-05-09T00:26:29.948Z,97.20
2023-05-09T00:28:59.405Z,97.00
2023-05-09T00:31:29.592Z,97.00
2023-05-09T00:33:58.887Z,97.00
2023-05-09T00:36:28.360Z,97.00
2023-05-09T00:38:58.148Z,96.80
2023-05-09T00:41:27.371Z,96.80
2023-05-09T00:43:57.449Z,96.80
2023-05-09T00:46:27.008Z,96.60
2023-05-09T00:48:58.146Z,96.60
2023-05-09T00:54:13.099Z,96.30
2023-05-09T00:56:42.368Z,96.30
2023-05-09T00:59:14.232Z,96.20
2023-05-09T01:01:48.257Z,96.10
2023-05-09T01:04:18.435Z,96.10
2023-05-09T01:08:02.255Z,95.90
2023-05-09T01:10:59.610Z,95.40
2023-05-09T01:14:07.204Z,95.30
2023-05-09T01:17:25.050Z,95.10
2023-05-09T01:20:15.236Z,94.90
2023-05-09T01:23:19.666Z,94.70
2023-05-09T01:26:04.122Z,94.70
2023-05-09T01:29:02.840Z,94.50
2023-05-09T01:31:39.676Z,94.40
2023-05-09T01:34:12.572Z,94.20
2023-05-09T01:36:44.584Z,94.00
2023-05-09T01:39:16.433Z,94.10
2023-05-09T01:41:47.108Z,93.90
2023-05-09T01:44:18.514Z,93.70
2023-05-09T01:46:49.202Z,93.30
2023-05-09T01:49:24.370Z,93.20
2023-05-09T01:51:58.521Z,93.10
2023-05-09T01:54:30.307Z,93.50
2023-05-09T01:57:02.057Z,93.70
2023-05-09T01:59:34.766Z,93.10
2023-05-09T02:02:07.368Z,93.20
2023-05-09T02:04:38.348Z,93.30
2023-05-09T02:07:09.233Z,92.90
2023-05-09T02:09:40.266Z,93.00
2023-05-09T02:12:10.997Z,93.20
2023-05-09T02:14:40.212Z,93.00
2023-05-09T02:17:11.760Z,92.90
2023-05-09T02:19:40.897Z,92.90
2023-05-09T02:22:10.545Z,92.50
2023-05-09T02:24:41.555Z,92.70
2023-05-09T02:27:13.423Z,92.50
2023-05-09T02:29:57.609Z,92.50
2023-05-09T02:32:33.350Z,92.10
2023-05-09T02:35:12.120Z,91.70
2023-05-09T02:37:49.397Z,91.60
2023-05-09T02:43:10.920Z,91.40
2023-05-09T02:45:41.173Z,91.60
2023-05-09T02:48:10.732Z,91.70
2023-05-09T02:50:40.537Z,92.00
2023-05-09T02:53:10.107Z,91.70
2023-05-09T02:55:39.489Z,91.60
2023-05-09T02:58:14.051Z,91.60
2023-05-09T03:00:45.047Z,91.50
2023-05-09T03:03:14.703Z,91.20
2023-05-09T03:05:44.381Z,91.60
2023-05-09T03:08:13.683Z,91.20
2023-05-09T03:10:42.974Z,91.00
2023-05-09T03:13:15.199Z,90.80
2023-05-09T03:15:44.502Z,90.70
2023-05-09T03:18:14.108Z,90.90
2023-05-09T03:20:43.400Z,90.40
2023-05-09T03:23:15.431Z,90.20
2023-05-09T03:25:44.680Z,90.30
2023-05-09T03:28:13.977Z,90.50
2023-05-09T03:30:44.167Z,90.30
2023-05-09T03:33:14.741Z,90.10
2023-05-09T03:35:44.143Z,90.40
2023-05-09T03:38:13.475Z,90.00
2023-05-09T03:40:42.832Z,89.90
2023-05-09T03:43:12.083Z,89.60
2023-05-09T03:45:41.453Z,89.60
2023-05-09T03:48:12.255Z,89.20
2023-05-09T03:50:41.938Z,89.20
2023-05-09T03:53:20.132Z,89.30
2023-05-09T03:58:32.345Z,88.70
2023-05-09T04:01:01.711Z,88.40
2023-05-09T04:03:31.317Z,87.20
2023-05-09T04:06:00.754Z,86.70
2023-05-09T04:08:30.237Z,86.20
2023-05-09T04:10:59.620Z,86.30
2023-05-09T04:13:30.860Z,86.10
2023-05-09T04:16:03.916Z,86.10
2023-05-09T04:18:34.510Z,85.80
2023-05-09T04:21:04.310Z,85.50
2023-05-09T04:23:33.611Z,85.30
2023-05-09T04:26:03.080Z,84.60
2023-05-09T04:28:35.537Z,83.60
2023-05-09T04:31:05.130Z,84.10
2023-05-09T04:33:35.681Z,83.90
2023-05-09T04:36:05.109Z,83.30
2023-05-09T04:38:34.334Z,82.10
2023-05-09T04:41:03.633Z,81.50
2023-05-09T04:43:33.537Z,80.80
2023-05-09T04:46:06.021Z,80.50
2023-05-09T04:48:36.670Z,79.80
2023-05-09T04:51:05.986Z,79.80
2023-05-09T04:53:35.402Z,79.10
2023-05-09T04:56:04.659Z,78.10
2023-05-09T04:58:35.593Z,77.90
2023-05-09T05:01:04.962Z,78.30
2023-05-09T05:03:34.664Z,77.80
2023-05-09T05:06:03.889Z,77.20
2023-05-09T05:08:33.043Z,76.80
2023-05-09T05:11:02.471Z,77.50
2023-05-09T05:13:31.826Z,77.40
2023-05-09T05:16:01.068Z,77.60
2023-05-09T05:18:30.355Z,77.50
2023-05-09T05:20:59.501Z,77.40
2023-05-09T05:23:28.734Z,77.00
2023-05-09T05:25:57.972Z,76.20
2023-05-09T05:28:27.193Z,76.10
2023-05-09T05:30:56.478Z,75.60
2023-05-09T05:33:26.034Z,75.00
2023-05-09T05:35:55.209Z,74.30
2023-05-09T05:38:24.460Z,74.70
2023-05-09T05:40:53.799Z,74.50
2023-05-09T05:43:22.957Z,74.60
2023-05-09T05:45:52.138Z,74.40
2023-05-09T05:48:21.499Z,74.10
2023-05-09T05:50:50.706Z,73.30
2023-05-09T05:53:19.856Z,72.90
2023-05-09T05:55:50.230Z,73.30
2023-05-09T05:58:19.484Z,73.20
2023-05-09T06:00:48.694Z,72.80
2023-05-09T06:03:18.488Z,73.40
2023-05-09T06:05:49.483Z,74.30
2023-05-09T06:08:18.724Z,74.20
2023-05-09T06:10:47.868Z,73.60
2023-05-09T06:13:17.131Z,73.50
2023-05-09T06:15:46.566Z,73.00
2023-05-09T06:18:15.833Z,73.90
2023-05-09T06:20:45.051Z,73.50
2023-05-09T06:23:14.272Z,73.80
2023-05-09T06:25:43.477Z,72.80
2023-05-09T06:28:12.641Z,72.60
2023-05-09T06:30:41.992Z,72.60
2023-05-09T06:33:11.437Z,71.60
2023-05-09T06:35:40.674Z,71.10
2023-05-09T06:38:09.957Z,72.20
2023-05-09T06:40:39.540Z,71.50
2023-05-09T06:43:08.750Z,71.80
2023-05-09T06:45:38.137Z,71.90
2023-05-09T06:48:07.806Z,71.60
2023-05-09T06:50:36.989Z,71.70
2023-05-09T06:53:06.326Z,72.00
2023-05-09T06:55:35.630Z,72.60
2023-05-09T06:58:05.803Z,71.80
2023-05-09T07:00:35.228Z,71.60
2023-05-09T07:03:04.512Z,71.30
2023-05-09T07:05:33.756Z,71.30
2023-05-09T07:08:03.099Z,71.70
2023-05-09T07:10:32.532Z,71.50
2023-05-09T07:13:01.729Z,70.90
2023-05-09T07:15:40.306Z,71.20
2023-05-09T07:18:11.620Z,71.10
2023-05-09T07:20:41.205Z,71.30
2023-05-09T07:23:10.496Z,71.40
2023-05-09T07:25:39.822Z,70.60
2023-05-09T07:28:09.084Z,70.30
2023-05-09T07:30:38.272Z,70.30
2023-05-09T07:33:08.553Z,70.30
2023-05-09T07:35:37.835Z,70.40
2023-05-09T07:38:07.512Z,70.20
2023-05-09T07:40:38.137Z,69.60
2023-05-09T07:43:07.345Z,70.00
2023-05-09T07:45:37.385Z,69.50
2023-05-09T07:48:07.043Z,69.80
2023-05-09T07:50:36.360Z,69.70
2023-05-09T07:53:05.685Z,69.80
2023-05-09T07:55:34.830Z,69.80
2023-05-09T07:58:04.026Z,69.40
2023-05-09T08:00:33.293Z,69.40
2023-05-09T08:03:02.573Z,69.60
2023-05-09T08:05:31.945Z,70.20
2023-05-09T08:08:01.289Z,70.10
2023-05-09T08:10:32.079Z,69.90
2023-05-09T08:13:01.621Z,69.80
2023-05-09T08:15:32.259Z,70.20
2023-05-09T08:18:01.585Z,70.30
2023-05-09T08:20:32.870Z,69.60
2023-05-09T08:23:02.130Z,69.60
2023-05-09T08:25:31.354Z,69.40
2023-05-09T08:28:00.792Z,69.30
2023-05-09T08:30:30.617Z,69.50
2023-05-09T08:32:59.834Z,70.20
2023-05-09T08:35:29.094Z,70.10
2023-05-09T08:37:59.113Z,69.60
2023-05-09T08:40:28.330Z,69.70
2023-05-09T08:42:58.383Z,70.00
2023-05-09T08:45:31.624Z,70.10
2023-05-09T08:48:03.817Z,70.10
2023-05-09T08:50:33.739Z,69.40
2023-05-09T08:53:03.256Z,69.60
2023-05-09T08:55:34.089Z,69.70
2023-05-09T08:58:05.154Z,69.60
2023-05-09T09:00:35.892Z,70.20
2023-05-09T09:03:07.886Z,70.00
2023-05-09T09:05:42.743Z,70.10
2023-05-09T09:08:12.909Z,71.10
2023-05-09T09:10:47.993Z,70.50
2023-05-09T09:13:19.230Z,72.00
2023-05-09T09:15:50.220Z,73.10
2023-05-09T09:18:30.633Z,73.80
2023-05-09T09:21:08.687Z,74.40
2023-05-09T09:23:44.054Z,75.40
2023-05-09T09:26:16.234Z,75.80
2023-05-09T09:28:45.593Z,76.00
2023-05-09T09:31:26.584Z,76.20
2023-05-09T09:34:02.761Z,76.40
2023-05-09T09:36:37.678Z,77.00
2023-05-09T09:39:07.777Z,77.50
2023-05-09T09:41:41.536Z,77.10
2023-05-09T09:44:22.537Z,77.60
2023-05-09T09:46:57.430Z,77.30
2023-05-09T09:49:28.325Z,76.80
2023-05-09T09:51:59.842Z,76.30
2023-05-09T09:54:30.246Z,76.30
2023-05-09T09:56:59.759Z,75.80
2023-05-09T09:59:29.303Z,76.50
2023-05-09T10:02:08.525Z,77.10
2023-05-09T10:04:44.330Z,77.60
2023-05-09T10:07:15.101Z,78.10
2023-05-09T10:09:44.807Z,78.40
2023-05-09T10:12:16.437Z,78.60
2023-05-09T10:14:47.052Z,78.60
2023-05-09T10:17:17.491Z,79.60
2023-05-09T10:19:48.854Z,79.20
2023-05-09T10:22:20.773Z,79.40
2023-05-09T10:25:04.581Z,79.70
2023-05-09T10:27:38.033Z,79.70
2023-05-09T10:30:23.589Z,80.00
2023-05-09T10:33:12.071Z,80.20
2023-05-09T10:35:48.742Z,80.20
2023-05-09T10:38:19.469Z,80.60
2023-05-09T10:40:49.782Z,80.70
2023-05-09T10:43:19.495Z,80.80
2023-05-09T10:45:49.622Z,80.80
2023-05-09T10:48:19.693Z,81.00
2023-05-09T10:50:50.060Z,80.80
2023-05-09T10:53:19.350Z,81.10
2023-05-09T10:56:03.992Z,81.40
2023-05-09T10:58:38.336Z,81.10
2023-05-09T11:01:08.005Z,81.20
2023-05-09T11:03:59.319Z,81.00
2023-05-09T11:06:45.287Z,80.90
2023-05-09T11:09:43.798Z,81.00
2023-05-09T11:12:16.530Z,80.80
2023-05-09T11:14:52.688Z,81.20
2023-05-09T11:17:25.675Z,81.50
2023-05-09T11:19:54.987Z,81.80
2023-05-09T11:22:33.675Z,81.80
2023-05-09T11:25:13.803Z,82.10
2023-05-09T11:27:44.768Z,81.60
2023-05-09T11:30:20.852Z,81.80
2023-05-09T11:32:56.472Z,82.70
2023-05-09T11:35:29.957Z,83.40
2023-05-09T11:38:08.814Z,82.80
2023-05-09T11:40:39.495Z,82.70
2023-05-09T11:43:10.490Z,83.80
2023-05-09T11:45:42.422Z,83.30
2023-05-09T11:48:12.005Z,84.00
2023-05-09T11:50:42.739Z,83.30
2023-05-09T11:53:14.234Z,83.20
2023-05-09T11:55:43.815Z,83.20
2023-05-09T11:58:14.914Z,83.20
2023-05-09T12:00:48.573Z,83.50
2023-05-09T12:03:18.493Z,83.50
2023-05-09T12:05:50.674Z,83.80
2023-05-09T12:08:23.892Z,83.90
2023-05-09T12:10:54.787Z,84.10
2023-05-09T12:13:24.195Z,84.60
2023-05-09T12:16:01.573Z,84.80
2023-05-09T12:18:30.949Z,85.10
2023-05-09T12:21:01.265Z,85.20
2023-05-09T12:23:35.906Z,85.50
2023-05-09T12:26:07.722Z,85.50
2023-05-09T12:28:40.166Z,85.90
2023-05-09T12:31:10.247Z,85.80
2023-05-09T12:33:41.416Z,87.00
2023-05-09T12:36:20.632Z,86.30
2023-05-09T12:38:58.170Z,86.30
2023-05-09T12:41:36.959Z,86.30
2023-05-09T12:44:10.684Z,86.60
2023-05-09T12:46:40.184Z,86.20
2023-05-09T12:49:23.637Z,86.30
2023-05-09T12:51:54.773Z,86.60
2023-05-09T12:54:30.826Z,88.90
2023-05-09T12:57:03.817Z,88.30
2023-05-09T12:59:34.908Z,89.00
2023-05-09T13:02:04.596Z,89.30
2023-05-09T13:04:34.123Z,88.90
2023-05-09T13:07:10.861Z,89.20
2023-05-09T13:10:02.012Z,89.00
2023-05-09T13:12:31.420Z,88.40
2023-05-09T13:15:01.769Z,89.00
2023-05-09T13:17:32.148Z,89.10
2023-05-09T13:20:02.230Z,89.20
2023-05-09T13:22:34.142Z,88.40
2023-05-09T13:25:03.565Z,89.00
2023-05-09T13:27:33.913Z,90.00
2023-05-09T13:30:03.424Z,90.00
2023-05-09T13:32:32.839Z,90.80
2023-05-09T13:35:02.156Z,91.20
2023-05-09T13:37:32.189Z,91.10
2023-05-09T13:40:01.487Z,91.30
2023-05-09T13:42:30.942Z,92.70
2023-05-09T13:45:00.443Z,93.50
2023-05-09T13:47:32.802Z,93.90
2023-05-09T13:50:02.294Z,94.30
2023-05-09T13:52:31.931Z,95.00
2023-05-09T13:55:02.268Z,95.50
2023-05-09T13:57:31.580Z,95.80
2023-05-09T14:05:27.934Z,97.30
2023-05-09T14:10:40.663Z,99.10
2023-05-09T14:13:10.343Z,99.70
2023-05-09T14:15:41.370Z,99.90
2023-05-09T14:18:11.842Z,99.90
2023-05-09T14:20:43.339Z,99.90
2023-05-09T14:23:26.393Z,99.90
2023-05-09T14:26:02.291Z,99.90
2023-05-09T14:31:20.139Z,99.90
2023-05-09T14:33:49.641Z,99.90
2023-05-09T14:36:20.356Z,99.90
2023-05-09T14:38:50.958Z,99.90
2023-05-09T14:41:22.638Z,99.90
2023-05-09T14:43:57.626Z,99.90
2023-05-09T14:46:33.842Z,99.90
2023-05-09T14:49:05.422Z,99.90
2023-05-09T14:51:35.225Z,99.90
2023-05-09T14:54:05.951Z,99.90
2023-05-09T14:56:41.243Z,99.90
2023-05-09T14:59:20.566Z,99.90
2023-05-09T15:01:57.333Z,99.90
2023-05-09T15:07:23.904Z,99.90
2023-05-09T15:12:42.249Z,99.90
2023-05-09T15:18:14.830Z,99.90
2023-05-09T15:20:44.839Z,99.90
2023-05-09T15:23:14.918Z,99.90
2023-05-09T15:25:45.633Z,99.90
2023-05-09T15:28:15.114Z,99.90
2023-05-09T15:30:47.808Z,99.90
2023-05-09T15:33:17.129Z,99.90
2023-05-09T15:35:52.276Z,99.90
2023-05-09T15:38:34.090Z,99.90
2023-05-09T15:41:06.395Z,99.90
2023-05-09T15:43:40.005Z,99.90
2023-05-09T15:46:14.850Z,99.90
2023-05-09T15:48:47.118Z,99.90
2023-05-09T15:51:16.565Z,99.90
2023-05-09T15:53:46.000Z,99.90
2023-05-09T15:56:15.619Z,99.90
2023-05-09T15:59:06.746Z,99.90
2023-05-09T16:01:37.219Z,99.90
2023-05-09T16:04:08.937Z,99.90
2023-05-09T16:06:38.966Z,99.90
2023-05-09T16:09:08.548Z,99.90
2023-05-09T16:11:38.242Z,99.90
2023-05-09T16:14:10.379Z,99.90
2023-05-09T16:16:47.076Z,99.90
2023-05-09T16:19:16.392Z,99.90
2023-05-09T16:21:48.598Z,99.90
2023-05-09T16:24:17.936Z,99.90
2023-05-09T16:26:47.116Z,99.90
2023-05-09T16:29:16.313Z,99.90
2023-05-09T16:31:45.910Z,99.90
2023-05-09T16:34:15.092Z,99.90
2023-05-09T16:36:45.683Z,99.90
2023-05-09T16:39:15.132Z,99.90
2023-05-09T16:41:44.501Z,99.90
2023-05-09T16:44:13.986Z,99.90
2023-05-09T16:46:43.509Z,99.90
2023-05-09T16:49:16.475Z,99.90
2023-05-09T16:51:46.709Z,99.90
2023-05-09T16:54:16.172Z,99.90
2023-05-09T16:56:45.478Z,99.90
2023-05-09T16:59:14.846Z,99.90
2023-05-09T17:01:44.340Z,99.90
2023-05-09T17:04:13.739Z,99.90
2023-05-09T17:06:43.102Z,99.90
2023-05-09T17:09:12.587Z,99.90
2023-05-09T17:11:41.991Z,99.90
2023-05-09T17:14:11.428Z,99.90
2023-05-09T17:16:40.742Z,99.90
2023-05-09T17:19:10.058Z,99.90
2023-05-09T17:21:42.528Z,99.90
2023-05-09T17:24:12.129Z,99.90
2023-05-09T17:26:42.064Z,99.90
2023-05-09T17:29:11.436Z,99.90
2023-05-09T17:31:40.908Z,99.90
2023-05-09T17:34:10.198Z,99.90
2023-05-09T17:36:39.496Z,99.90
2023-05-09T17:39:08.841Z,99.90
2023-05-09T17:41:38.100Z,99.90
2023-05-09T17:44:07.594Z,99.90
2023-05-09T17:46:37.013Z,99.90
2023-05-09T17:49:08.713Z,99.90
2023-05-09T17:51:38.253Z,99.90
2023-05-09T17:54:07.792Z,99.90
2023-05-09T17:56:37.432Z,99.90
2023-05-09T17:59:07.564Z,99.90
2023-05-09T18:01:37.009Z,99.90
2023-05-09T18:04:07.413Z,99.90
2023-05-09T18:06:38.139Z,99.90
2023-05-09T18:09:08.038Z,99.90
2023-05-09T18:11:37.560Z,99.90
2023-05-09T18:14:07.396Z,99.90
2023-05-09T18:16:37.273Z,99.90
2023-05-09T18:19:06.925Z,99.90
2023-05-09T18:21:37.492Z,99.90
2023-05-09T18:24:10.080Z,99.90
2023-05-09T18:26:39.359Z,99.90
2023-05-09T18:29:08.909Z,99.90
2023-05-09T18:31:40.469Z,99.90
2023-05-09T18:34:10.319Z,99.90
2023-05-09T18:36:39.702Z,99.90
2023-05-09T18:39:10.182Z,99.90
2023-05-09T18:41:39.538Z,99.90
2023-05-09T18:44:09.575Z,99.90
2023-05-09T18:46:39.068Z,99.90
2023-05-09T18:49:08.860Z,99.90
2023-05-09T18:51:38.135Z,99.90
2023-05-09T18:54:13.443Z,99.90
2023-05-09T18:56:49.798Z,99.90
2023-05-09T18:59:19.171Z,99.90
2023-05-09T19:01:48.467Z,99.90
2023-05-09T19:04:21.121Z,99.90
2023-05-09T19:06:51.699Z,99.90
2023-05-09T19:09:20.991Z,99.90
2023-05-09T19:11:50.260Z,99.90
2023-05-09T19:14:19.476Z,99.90
2023-05-09T19:16:48.798Z,99.90
2023-05-09T19:19:18.067Z,99.90
2023-05-09T19:21:49.124Z,99.90
2023-05-09T19:24:24.364Z,99.90
2023-05-09T19:26:53.632Z,99.90
2023-05-09T19:29:22.783Z,99.90
2023-05-09T19:31:52.198Z,99.90
2023-05-09T19:34:22.096Z,99.90
2023-05-09T19:36:51.720Z,99.90
2023-05-09T19:39:21.100Z,99.90
2023-05-09T19:41:51.191Z,99.90
2023-05-09T19:44:20.522Z,99.90
2023-05-09T19:46:50.483Z,99.90
2023-05-09T19:49:19.915Z,99.90
2023-05-09T19:51:49.284Z,99.90
2023-05-09T19:54:18.747Z,99.90
2023-05-09T19:56:48.298Z,99.90
2023-05-09T19:59:19.605Z,99.90
2023-05-09T20:01:49.103Z,99.90
2023-05-09T20:04:22.645Z,99.90
2023-05-09T20:06:52.740Z,99.90
2023-05-09T20:09:22.292Z,99.90
2023-05-09T20:11:51.650Z,99.90
2023-05-09T20:14:20.942Z,99.90
2023-05-09T20:16:50.392Z,99.90
2023-05-09T20:19:30.674Z,99.90
2023-05-09T20:22:00.607Z,99.90
2023-05-09T20:24:32.379Z,99.90
2023-05-09T20:27:03.492Z,99.90
2023-05-09T20:29:32.772Z,99.90
2023-05-09T20:32:03.144Z,99.90
2023-05-09T20:34:32.569Z,99.90
2023-05-09T20:37:02.509Z,99.90
2023-05-09T20:39:31.895Z,99.90
2023-05-09T20:42:03.230Z,99.90
2023-05-09T20:44:32.597Z,99.90
2023-05-09T20:47:18.458Z,99.90
2023-05-09T20:49:47.809Z,99.90
2023-05-09T20:52:17.142Z,99.90
2023-05-09T20:54:49.087Z,99.90
2023-05-09T20:57:21.105Z,99.90
2023-05-09T20:59:50.424Z,99.90
2023-05-09T21:02:19.761Z,99.90
2023-05-09T21:04:49.039Z,99.90
2023-05-09T21:07:21.021Z,99.90
2023-05-09T21:09:54.701Z,99.90
2023-05-09T21:15:17.598Z,99.90
2023-05-09T21:17:48.413Z,99.90
2023-05-09T21:20:18.074Z,99.90
2023-05-09T21:22:47.631Z,99.90
2023-05-09T21:25:18.494Z,99.90
2023-05-09T21:27:47.822Z,99.90
2023-05-09T21:30:17.503Z,99.90
2023-05-09T21:32:46.989Z,99.90
2023-05-09T21:35:16.615Z,99.90
2023-05-09T21:37:47.048Z,99.90
2023-05-09T21:40:16.728Z,99.90
2023-05-09T21:42:46.290Z,99.90
2023-05-09T21:45:15.927Z,99.90
2023-05-09T21:47:45.464Z,99.90
2023-05-09T21:50:15.080Z,99.90
2023-05-09T21:52:44.581Z,99.90
2023-05-09T21:55:14.201Z,99.90
2023-05-09T21:57:43.651Z,99.90
2023-05-09T22:00:16.279Z,99.90
2023-05-09T22:02:46.317Z,99.90
2023-05-09T22:05:15.883Z,99.90
2023-05-09T22:07:45.397Z,99.90
2023-05-09T22:10:14.934Z,99.90
2023-05-09T22:12:44.535Z,99.90
2023-05-09T22:15:14.128Z,99.90
2023-05-09T22:17:43.512Z,99.90
2023-05-09T22:20:13.901Z,99.90
2023-05-09T22:22:43.506Z,99.90
2023-05-09T22:25:13.008Z,99.90
2023-05-09T22:27:42.240Z,99.90
2023-05-09T22:30:13.559Z,99.90
2023-05-09T22:32:43.455Z,99.90
2023-05-09T22:35:12.911Z,99.90
2023-05-09T22:37:45.351Z,99.90
2023-05-09T22:40:15.784Z,99.90
2023-05-09T22:42:45.337Z,99.90
2023-05-09T22:45:14.890Z,99.90
2023-05-09T22:47:44.388Z,99.90
2023-05-09T22:50:14.727Z,99.90
2023-05-09T22:52:44.389Z,99.90
2023-05-09T22:55:13.837Z,99.90
2023-05-09T22:57:43.488Z,99.90
2023-05-09T23:00:13.964Z,99.90
2023-05-09T23:02:43.592Z,99.90
2023-05-09T23:05:13.058Z,99.90
2023-05-09T23:07:42.617Z,99.90
2023-05-09T23:10:12.464Z,99.90
2023-05-09T23:12:41.797Z,99.90
2023-05-09T23:15:12.371Z,99.90
2023-05-09T23:17:42.513Z,99.90
2023-05-09T23:20:12.709Z,99.90
2023-05-09T23:22:42.046Z,99.90
2023-05-09T23:25:11.789Z,99.90
2023-05-09T23:27:41.752Z,99.90
2023-05-09T23:30:12.442Z,99.90
2023-05-09T23:32:43.172Z,99.90
2023-05-09T23:35:12.872Z,99.90
2023-05-09T23:37:43.866Z,99.90
2023-05-09T23:40:14.242Z,99.90
2023-05-09T23:42:43.839Z,99.90
2023-05-09T23:45:13.755Z,99.90
2023-05-09T23:47:43.050Z,99.90
2023-05-09T23:50:13.454Z,99.90
2023-05-09T23:52:44.496Z,99.90
2023-05-09T23:55:14.136Z,99.90
2023-05-09T23:57:43.502Z,99.90
